createdAt,value
2019-02-19T00:01:38.978Z,1.40
2019-02-19T00:04:09.144Z,1.40
2019-02-19T00:06:39.641Z,1.30
2019-02-19T00:09:10.010Z,1.30
2019-02-19T00:11:40.383Z,1.20
2019-02-19T00:14:11.587Z,1.30
2019-02-19T00:16:41.632Z,1.20
2019-02-19T00:19:11.829Z,1.30
2019-02-19T00:21:41.920Z,1.30
2019-02-19T00:24:12.167Z,1.20
2019-02-19T00:26:42.340Z,1.20
2019-02-19T00:29:12.537Z,1.20
2019-02-19T00:31:42.577Z,1.30
2019-02-19T00:34:12.874Z,1.30
2019-02-19T00:36:43.043Z,1.30
2019-02-19T00:39:13.168Z,1.30
2019-02-19T00:41:43.252Z,1.30
2019-02-19T00:44:13.523Z,1.30
2019-02-19T00:46:43.790Z,1.30
2019-02-19T00:49:14.793Z,1.30
2019-02-19T00:56:44.443Z,1.30
2019-02-19T00:59:14.768Z,1.20
2019-02-19T01:01:45.066Z,1.30
2019-02-19T01:04:15.229Z,1.20
2019-02-19T01:06:45.439Z,1.20
2019-02-19T01:11:45.269Z,1.10
2019-02-19T01:14:15.301Z,1.20
2019-02-19T01:16:45.466Z,1.10
2019-02-19T01:19:15.585Z,1.10
2019-02-19T01:21:45.719Z,1.20
2019-02-19T01:24:15.889Z,1.10
2019-02-19T01:26:46.081Z,1.10
2019-02-19T01:29:16.220Z,1.10
2019-02-19T01:31:46.393Z,1.10
2019-02-19T01:34:16.628Z,1.10
2019-02-19T01:36:46.658Z,1.20
2019-02-19T01:39:16.735Z,1.10
2019-02-19T01:41:47.174Z,1.10
2019-02-19T01:44:17.622Z,1.10
2019-02-19T01:46:47.738Z,1.10
2019-02-19T01:49:18.761Z,1.10
2019-02-19T01:51:48.991Z,1.80
2019-02-19T01:54:19.439Z,1.70
2019-02-19T01:56:49.844Z,0.90
2019-02-19T01:59:19.998Z,1.00
2019-02-19T02:01:50.344Z,0.90
2019-02-19T02:04:20.546Z,1.00
2019-02-19T02:06:51.035Z,0.90
2019-02-19T02:09:21.091Z,0.90
2019-02-19T02:11:51.183Z,0.90
2019-02-19T02:16:50.756Z,0.50
2019-02-19T02:19:20.878Z,0.90
2019-02-19T02:21:51.050Z,0.80
2019-02-19T02:24:21.156Z,0.60
2019-02-19T02:26:53.070Z,0.70
2019-02-19T02:29:23.201Z,0.40
2019-02-19T02:31:53.406Z,0.60
2019-02-19T02:34:23.961Z,0.60
2019-02-19T02:36:54.048Z,0.60
2019-02-19T02:39:24.078Z,0.50
2019-02-19T02:41:54.215Z,0.50
2019-02-19T02:44:24.362Z,0.50
2019-02-19T02:46:54.383Z,0.50
2019-02-19T02:49:25.383Z,0.40
2019-02-19T02:56:56.006Z,0.50
2019-02-19T02:59:26.241Z,0.40
2019-02-19T03:01:56.589Z,0.40
2019-02-19T03:04:26.740Z,0.40
2019-02-19T03:07:05.599Z,0.40
2019-02-19T03:09:35.701Z,0.50
2019-02-19T03:12:05.693Z,0.40
2019-02-19T03:14:36.083Z,0.40
2019-02-19T03:17:06.517Z,0.50
2019-02-19T03:19:36.833Z,0.20
2019-02-19T03:22:06.900Z,0.10
2019-02-19T03:24:37.058Z,0.20
2019-02-19T03:27:07.150Z,0.30
2019-02-19T03:29:37.189Z,0.40
2019-02-19T03:32:07.340Z,0.30
2019-02-19T03:34:37.520Z,0.10
2019-02-19T03:37:07.629Z,0.10
2019-02-19T03:39:37.645Z,0.10
2019-02-19T03:42:07.726Z,0.10
2019-02-19T03:44:37.902Z,0.00
2019-02-19T03:47:08.215Z,0.00
2019-02-19T03:49:39.400Z,0.00
2019-02-19T03:52:09.600Z,0.10
2019-02-19T03:54:39.623Z,0.00
2019-02-19T03:57:09.760Z,0.00
2019-02-19T03:59:41.465Z,-0.20
2019-02-19T04:02:12.586Z,0.00
2019-02-19T04:04:42.667Z,-0.10
2019-02-19T04:07:12.620Z,-0.10
2019-02-19T04:09:42.826Z,0.00
2019-02-19T04:12:12.789Z,0.10
2019-02-19T04:14:43.047Z,-0.10
2019-02-19T04:17:13.334Z,-0.10
2019-02-19T04:19:43.399Z,0.00
2019-02-19T04:22:13.441Z,0.00
2019-02-19T04:24:43.704Z,0.00
2019-02-19T04:27:13.709Z,-0.10
2019-02-19T04:29:43.837Z,-0.10
2019-02-19T04:32:13.936Z,-0.40
2019-02-19T04:34:44.280Z,-0.20
2019-02-19T04:37:14.451Z,-0.20
2019-02-19T04:39:44.706Z,-0.20
2019-02-19T04:42:14.770Z,-0.30
2019-02-19T04:44:44.919Z,-0.30
2019-02-19T04:47:15.258Z,-0.20
2019-02-19T04:49:46.465Z,-0.30
2019-02-19T04:52:16.970Z,-0.30
2019-02-19T04:54:47.253Z,-0.50
2019-02-19T04:57:17.207Z,-0.40
2019-02-19T04:59:47.393Z,-0.30
2019-02-19T05:02:17.927Z,-0.30
2019-02-19T05:04:48.149Z,-0.50
2019-02-19T05:07:18.246Z,-0.40
2019-02-19T05:09:48.329Z,-0.50
2019-02-19T05:12:18.671Z,-0.50
2019-02-19T05:14:49.768Z,-0.50
2019-02-19T05:17:19.760Z,-0.60
2019-02-19T05:19:50.295Z,-0.80
2019-02-19T05:22:20.486Z,-0.60
2019-02-19T05:24:50.820Z,-0.70
2019-02-19T05:27:21.163Z,-0.70
2019-02-19T05:29:51.665Z,-0.50
2019-02-19T05:32:21.889Z,-0.70
2019-02-19T05:34:52.082Z,-0.90
2019-02-19T05:37:22.182Z,-0.70
2019-02-19T05:39:52.480Z,-0.60
2019-02-19T05:42:22.711Z,-0.70
2019-02-19T05:44:52.996Z,-0.90
2019-02-19T05:47:23.357Z,-0.70
2019-02-19T05:52:23.913Z,-0.60
2019-02-19T05:54:54.221Z,-0.60
2019-02-19T05:57:24.684Z,-0.50
2019-02-19T05:59:54.911Z,-0.50
2019-02-19T06:02:25.203Z,-0.50
2019-02-19T06:04:55.416Z,-0.50
2019-02-19T06:07:25.664Z,-0.50
2019-02-19T06:09:57.402Z,-0.50
2019-02-19T06:12:27.642Z,-0.60
2019-02-19T06:14:58.402Z,-0.50
2019-02-19T06:17:28.953Z,-0.40
2019-02-19T06:19:59.266Z,-0.40
2019-02-19T06:22:29.210Z,-0.40
2019-02-19T06:25:00.001Z,-0.40
2019-02-19T06:29:59.985Z,-0.40
2019-02-19T06:32:30.020Z,-0.30
2019-02-19T06:35:00.349Z,-0.30
2019-02-19T06:37:30.426Z,-0.30
2019-02-19T06:40:00.574Z,-0.10
2019-02-19T06:42:30.517Z,0.10
2019-02-19T06:45:00.967Z,-0.20
2019-02-19T06:47:31.269Z,-0.10
2019-02-19T06:50:02.326Z,0.00
2019-02-19T06:52:32.482Z,-0.10
2019-02-19T06:55:02.910Z,0.00
2019-02-19T06:57:33.134Z,0.00
2019-02-19T07:00:03.095Z,0.70
2019-02-19T07:02:35.987Z,0.20
2019-02-19T07:07:40.392Z,0.30
2019-02-19T07:12:39.907Z,0.30
2019-02-19T07:15:10.477Z,0.30
2019-02-19T07:17:40.505Z,0.40
2019-02-19T07:20:11.114Z,0.30
2019-02-19T07:22:41.297Z,0.50
2019-02-19T07:25:12.481Z,0.60
2019-02-19T07:27:42.546Z,0.60
2019-02-19T07:30:13.334Z,0.30
2019-02-19T07:32:43.408Z,1.10
2019-02-19T07:35:15.133Z,0.70
2019-02-19T07:37:45.328Z,0.80
2019-02-19T07:40:17.353Z,0.90
2019-02-19T07:42:47.157Z,0.90
2019-02-19T07:45:17.364Z,1.00
2019-02-19T07:50:18.264Z,1.20
2019-02-19T07:52:48.356Z,1.30
2019-02-19T07:55:18.474Z,1.30
2019-02-19T07:57:48.586Z,1.50
2019-02-19T08:00:18.700Z,1.60
2019-02-19T08:02:48.830Z,1.60
2019-02-19T08:05:19.362Z,1.70
2019-02-19T08:07:49.444Z,1.80
2019-02-19T08:10:19.481Z,1.80
2019-02-19T08:12:49.591Z,1.90
2019-02-19T08:15:20.007Z,2.00
2019-02-19T08:17:51.561Z,2.20
2019-02-19T08:20:21.620Z,2.10
2019-02-19T08:22:51.640Z,2.50
2019-02-19T08:25:21.714Z,2.40
2019-02-19T08:27:51.774Z,2.30
2019-02-19T08:30:21.954Z,2.50
2019-02-19T08:32:52.074Z,2.50
2019-02-19T08:35:22.140Z,2.50
2019-02-19T08:37:52.255Z,2.70
2019-02-19T08:40:22.954Z,2.30
2019-02-19T08:42:53.482Z,2.90
2019-02-19T08:45:23.692Z,2.90
2019-02-19T08:47:54.602Z,2.90
2019-02-19T08:50:26.175Z,3.00
2019-02-19T08:52:56.396Z,3.10
2019-02-19T08:55:26.625Z,3.30
2019-02-19T08:57:58.265Z,3.30
2019-02-19T09:00:28.376Z,3.50
2019-02-19T09:02:58.714Z,3.60
2019-02-19T09:05:28.911Z,3.70
2019-02-19T09:07:58.945Z,3.70
2019-02-19T09:10:29.366Z,3.90
2019-02-19T09:12:59.476Z,4.10
2019-02-19T09:15:29.583Z,4.10
2019-02-19T09:17:59.624Z,4.30
2019-02-19T09:20:29.776Z,4.30
2019-02-19T09:23:00.896Z,4.60
2019-02-19T09:25:30.923Z,4.60
2019-02-19T09:28:00.978Z,4.80
2019-02-19T09:30:30.971Z,4.90
2019-02-19T09:33:00.948Z,4.90
2019-02-19T09:35:32.105Z,5.10
2019-02-19T09:38:02.298Z,5.20
2019-02-19T09:40:33.582Z,4.80
2019-02-19T09:43:03.866Z,5.40
2019-02-19T09:45:34.027Z,5.40
2019-02-19T09:48:04.261Z,5.60
2019-02-19T09:50:35.276Z,5.60
2019-02-19T09:53:05.458Z,5.70
2019-02-19T09:55:35.986Z,6.00
2019-02-19T09:58:07.493Z,5.80
2019-02-19T10:00:38.124Z,5.90
2019-02-19T10:03:08.465Z,6.30
2019-02-19T10:05:38.676Z,6.10
2019-02-19T10:08:10.267Z,6.40
2019-02-19T10:10:40.500Z,6.30
2019-02-19T10:13:10.536Z,6.70
2019-02-19T10:15:40.873Z,7.00
2019-02-19T10:18:12.579Z,6.90
2019-02-19T10:20:42.805Z,7.10
2019-02-19T10:23:12.835Z,7.50
2019-02-19T10:25:44.639Z,7.70
2019-02-19T10:28:14.593Z,8.10
2019-02-19T10:30:45.009Z,8.10
2019-02-19T10:33:15.030Z,8.30
2019-02-19T10:35:46.383Z,8.50
2019-02-19T10:38:17.621Z,8.80
2019-02-19T10:40:47.652Z,8.80
2019-02-19T10:43:17.813Z,8.50
2019-02-19T10:45:48.080Z,9.10
2019-02-19T10:48:19.934Z,9.20
2019-02-19T10:50:50.845Z,9.30
2019-02-19T10:58:22.918Z,9.80
2019-02-19T11:00:52.375Z,9.60
2019-02-19T11:03:22.395Z,9.70
2019-02-19T11:05:52.508Z,9.70
2019-02-19T11:08:22.743Z,9.80
2019-02-19T11:10:52.927Z,9.90
2019-02-19T11:13:22.929Z,9.90
2019-02-19T11:15:53.034Z,10.00
2019-02-19T11:18:28.482Z,10.10
2019-02-19T11:20:55.840Z,10.20
2019-02-19T11:23:25.951Z,10.10
2019-02-19T11:25:56.068Z,10.20
2019-02-19T11:30:55.506Z,10.40
2019-02-19T11:33:25.646Z,10.30
2019-02-19T11:35:56.117Z,10.40
2019-02-19T11:38:26.512Z,10.40
2019-02-19T11:40:56.690Z,10.40
2019-02-19T11:43:26.648Z,10.40
2019-02-19T11:45:56.881Z,10.50
2019-02-19T11:48:26.967Z,10.60
2019-02-19T11:50:57.383Z,10.60
2019-02-19T11:53:27.418Z,10.70
2019-02-19T11:55:57.591Z,10.60
2019-02-19T11:58:27.581Z,10.80
2019-02-19T12:00:57.889Z,10.80
2019-02-19T12:03:27.990Z,10.80
2019-02-19T12:05:58.209Z,11.00
2019-02-19T12:08:28.320Z,10.90
2019-02-19T12:10:58.658Z,10.90
2019-02-19T12:13:28.717Z,11.00
2019-02-19T12:15:59.028Z,11.00
2019-02-19T12:18:29.336Z,11.00
2019-02-19T12:20:59.545Z,11.00
2019-02-19T12:23:29.528Z,11.00
2019-02-19T12:26:00.428Z,11.10
2019-02-19T12:28:30.443Z,11.10
2019-02-19T12:31:00.492Z,11.10
2019-02-19T12:33:30.886Z,11.20
2019-02-19T12:36:01.145Z,11.20
2019-02-19T12:38:31.386Z,11.20
2019-02-19T12:41:01.541Z,11.40
2019-02-19T12:43:31.710Z,11.40
2019-02-19T12:46:02.160Z,11.40
2019-02-19T12:48:32.187Z,11.40
2019-02-19T12:51:03.425Z,11.50
2019-02-19T12:53:33.631Z,11.50
2019-02-19T12:56:03.772Z,11.50
2019-02-19T12:58:34.231Z,11.50
2019-02-19T13:01:05.640Z,11.50
2019-02-19T13:03:35.958Z,11.60
2019-02-19T13:06:06.260Z,11.50
2019-02-19T13:08:36.463Z,11.90
2019-02-19T13:11:06.538Z,11.60
2019-02-19T13:13:36.633Z,11.70
2019-02-19T13:16:06.825Z,11.60
2019-02-19T13:18:36.943Z,11.70
2019-02-19T13:21:07.167Z,11.70
2019-02-19T13:23:38.443Z,11.70
2019-02-19T13:26:08.523Z,11.60
2019-02-19T13:28:38.643Z,11.70
2019-02-19T13:31:08.862Z,11.70
2019-02-19T13:33:39.396Z,11.70
2019-02-19T13:36:10.283Z,11.40
2019-02-19T13:38:40.428Z,11.70
2019-02-19T13:41:10.894Z,11.70
2019-02-19T13:43:40.827Z,11.60
2019-02-19T13:46:11.112Z,11.30
2019-02-19T13:48:41.256Z,11.70
2019-02-19T13:51:12.635Z,11.60
2019-02-19T13:53:44.527Z,11.60
2019-02-19T13:56:14.930Z,11.70
2019-02-19T13:58:46.171Z,11.70
2019-02-19T14:01:16.355Z,11.70
2019-02-19T14:03:47.467Z,11.70
2019-02-19T14:06:17.788Z,11.70
2019-02-19T14:08:48.050Z,11.70
2019-02-19T14:11:18.419Z,11.60
2019-02-19T14:13:50.208Z,11.70
2019-02-19T14:16:21.914Z,11.70
2019-02-19T14:18:56.570Z,11.90
2019-02-19T14:21:31.502Z,12.10
2019-02-19T14:24:12.684Z,11.60
2019-02-19T14:27:00.708Z,11.50
2019-02-19T14:32:06.806Z,11.40
2019-02-19T14:34:44.583Z,11.30
2019-02-19T14:37:25.265Z,11.20
2019-02-19T14:40:10.509Z,11.20
2019-02-19T14:45:25.812Z,11.10
2019-02-19T14:53:16.288Z,10.80
2019-02-19T14:55:54.744Z,10.40
2019-02-19T14:58:32.648Z,10.70
2019-02-19T15:01:23.104Z,10.50
2019-02-19T15:06:42.429Z,10.70
2019-02-19T15:09:14.283Z,10.40
2019-02-19T15:11:45.966Z,10.50
2019-02-19T15:19:29.480Z,10.30
2019-02-19T15:22:04.025Z,10.00
2019-02-19T15:24:39.789Z,10.00
2019-02-19T15:27:12.659Z,10.00
2019-02-19T15:29:59.669Z,10.00
2019-02-19T15:32:49.749Z,9.90
2019-02-19T15:35:27.454Z,9.70
2019-02-19T15:38:15.493Z,9.70
2019-02-19T15:41:02.405Z,9.70
2019-02-19T15:46:11.265Z,9.50
2019-02-19T15:48:59.482Z,9.30
2019-02-19T15:51:37.893Z,9.90
2019-02-19T15:56:58.203Z,9.20
2019-02-19T15:59:32.237Z,9.00
2019-02-19T16:02:04.157Z,9.00
2019-02-19T16:04:35.861Z,8.80
2019-02-19T16:07:24.167Z,9.20
2019-02-19T16:09:58.511Z,8.70
2019-02-19T16:12:30.167Z,8.70
2019-02-19T16:15:02.095Z,8.80
2019-02-19T16:17:36.897Z,8.60
2019-02-19T16:20:10.595Z,8.60
2019-02-19T16:23:00.821Z,8.50
2019-02-19T16:25:49.497Z,8.40
2019-02-19T16:28:24.142Z,8.50
2019-02-19T16:33:49.644Z,8.30
2019-02-19T16:36:21.594Z,8.30
2019-02-19T16:38:53.757Z,8.50
2019-02-19T16:41:28.277Z,8.30
2019-02-19T16:44:03.099Z,8.20
2019-02-19T16:46:38.134Z,8.30
2019-02-19T16:49:26.303Z,8.30
2019-02-19T16:52:10.213Z,8.20
2019-02-19T16:54:42.375Z,8.10
2019-02-19T16:57:16.908Z,8.00
2019-02-19T16:59:48.762Z,8.20
2019-02-19T17:05:08.461Z,8.20
2019-02-19T17:07:49.495Z,8.20
2019-02-19T17:10:21.715Z,8.20
2019-02-19T17:13:06.170Z,8.30
2019-02-19T17:15:38.358Z,8.10
2019-02-19T17:18:25.335Z,8.00
2019-02-19T17:21:04.480Z,8.00
2019-02-19T17:23:52.806Z,8.00
2019-02-19T17:26:36.254Z,8.20
2019-02-19T17:29:07.989Z,8.10
2019-02-19T17:31:56.027Z,7.70
2019-02-19T17:37:01.989Z,8.10
2019-02-19T17:39:36.825Z,8.80
2019-02-19T17:42:08.680Z,8.20
2019-02-19T17:44:57.652Z,8.10
2019-02-19T17:47:41.285Z,8.10
2019-02-19T17:50:16.724Z,8.20
2019-02-19T17:53:03.940Z,8.30
2019-02-19T17:55:42.258Z,8.40
2019-02-19T17:58:26.189Z,8.50
2019-02-19T18:01:11.673Z,8.50
2019-02-19T18:03:46.504Z,8.50
2019-02-19T18:06:18.266Z,8.60
2019-02-19T18:11:37.139Z,8.70
2019-02-19T18:16:53.835Z,8.70
2019-02-19T18:19:24.413Z,8.90
2019-02-19T18:21:55.856Z,8.80
2019-02-19T18:24:26.534Z,8.90
2019-02-19T18:26:56.740Z,8.90
2019-02-19T18:34:28.057Z,9.00
2019-02-19T18:36:58.087Z,9.00
2019-02-19T18:41:58.413Z,9.00
2019-02-19T18:44:28.862Z,8.90
2019-02-19T18:46:59.086Z,8.90
2019-02-19T18:49:29.389Z,8.90
2019-02-19T18:51:59.419Z,8.90
2019-02-19T18:54:29.635Z,9.00
2019-02-19T18:56:59.779Z,9.20
2019-02-19T18:59:30.087Z,8.90
2019-02-19T19:02:00.085Z,9.20
2019-02-19T19:04:31.729Z,9.00
2019-02-19T19:07:01.614Z,8.90
2019-02-19T19:09:32.878Z,8.90
2019-02-19T19:12:02.951Z,8.70
2019-02-19T19:17:02.863Z,8.90
2019-02-19T19:19:34.308Z,8.80
2019-02-19T19:22:04.835Z,8.90
2019-02-19T19:24:35.649Z,8.80
2019-02-19T19:27:05.789Z,8.90
2019-02-19T19:29:36.216Z,8.80
2019-02-19T19:34:36.336Z,8.80
2019-02-19T19:37:06.459Z,8.80
2019-02-19T19:39:36.558Z,8.90
2019-02-19T19:42:06.878Z,8.80
2019-02-19T19:44:37.283Z,8.70
2019-02-19T19:47:07.368Z,8.50
2019-02-19T19:52:08.697Z,8.40
2019-02-19T19:54:38.894Z,8.40
2019-02-19T19:57:10.441Z,8.30
2019-02-19T20:02:10.183Z,8.80
2019-02-19T20:04:40.604Z,8.20
2019-02-19T20:07:10.818Z,8.10
2019-02-19T20:09:40.955Z,8.10
2019-02-19T20:12:11.059Z,8.10
2019-02-19T20:14:42.299Z,8.00
2019-02-19T20:17:12.323Z,7.70
2019-02-19T20:19:42.607Z,7.90
2019-02-19T20:22:13.060Z,8.00
2019-02-19T20:24:43.172Z,7.90
2019-02-19T20:29:43.518Z,7.80
2019-02-19T20:32:13.857Z,8.50
2019-02-19T20:34:44.176Z,7.90
2019-02-19T20:37:14.532Z,7.70
2019-02-19T20:42:18.044Z,7.90
2019-02-19T20:44:48.609Z,8.00
2019-02-19T20:47:19.605Z,7.90
2019-02-19T20:49:50.178Z,7.90
2019-02-19T20:52:20.791Z,7.90
2019-02-19T20:54:51.047Z,8.00
2019-02-19T20:59:51.099Z,7.90
2019-02-19T21:02:21.271Z,8.00
2019-02-19T21:07:23.066Z,8.00
2019-02-19T21:12:28.638Z,8.00
2019-02-19T21:15:00.248Z,7.90
2019-02-19T21:17:30.438Z,7.90
2019-02-19T21:25:00.265Z,7.60
2019-02-19T21:27:30.658Z,7.60
2019-02-19T21:30:00.725Z,7.40
2019-02-19T21:32:31.328Z,7.30
2019-02-19T21:35:01.637Z,7.20
2019-02-19T21:37:31.998Z,7.00
2019-02-19T21:40:02.239Z,6.80
2019-02-19T21:42:33.774Z,6.70
2019-02-19T21:45:05.299Z,6.60
2019-02-19T21:50:07.778Z,6.40
2019-02-19T21:52:38.226Z,6.30
2019-02-19T21:55:11.018Z,6.00
2019-02-19T21:57:42.240Z,6.00
2019-02-19T22:00:18.005Z,6.20
2019-02-19T22:02:49.558Z,6.20
2019-02-19T22:05:19.997Z,5.90
2019-02-19T22:07:50.157Z,5.80
2019-02-19T22:10:20.438Z,5.80
2019-02-19T22:12:50.871Z,5.90
2019-02-19T22:15:21.217Z,5.90
2019-02-19T22:17:51.564Z,5.80
2019-02-19T22:20:24.880Z,5.70
2019-02-19T22:22:55.104Z,5.70
2019-02-19T22:25:25.624Z,5.70
2019-02-19T22:30:26.276Z,5.60
2019-02-19T22:32:56.399Z,5.70
2019-02-19T22:35:26.586Z,5.70
2019-02-19T22:40:26.636Z,6.00
2019-02-19T22:42:56.919Z,6.10
2019-02-19T22:47:56.540Z,6.10
2019-02-19T22:52:56.426Z,6.00
2019-02-19T22:55:31.245Z,5.90
2019-02-19T22:58:02.803Z,6.10
2019-02-19T23:00:49.536Z,6.10
2019-02-19T23:03:28.125Z,6.20
2019-02-19T23:13:27.406Z,6.40
2019-02-19T23:15:57.717Z,6.40
2019-02-19T23:25:56.997Z,6.70
2019-02-19T23:28:27.170Z,6.60
2019-02-19T23:30:57.422Z,6.60
2019-02-19T23:36:06.821Z,6.50
2019-02-19T23:38:37.025Z,6.60
2019-02-19T23:41:07.268Z,6.70
2019-02-19T23:46:07.524Z,6.80
2019-02-19T23:48:37.899Z,6.70
2019-02-19T23:51:08.281Z,6.80
2019-02-19T23:53:38.206Z,6.60
2019-02-19T23:56:08.764Z,6.60
2019-02-19T23:58:39.745Z,6.60
